sensor_id;sensor_type;location;lat;lon;timestamp;temperature;humidity
2212;DHT22;48849;48.758;9.158;2023-09-30T00:01:22;20.00;99.90
2212;DHT22;48849;48.758;9.158;2023-09-30T00:03:49;20.00;99.90
2212;DHT22;48849;48.758;9.158;2023-09-30T00:06:16;20.10;99.90
2212;DHT22;48849;48.758;9.158;2023-09-30T00:08:43;20.10;99.90
2212;DHT22;48849;48.758;9.158;2023-09-30T00:11:11;20.00;99.90
2212;DHT22;48849;48.758;9.158;2023-09-30T00:13:38;20.10;99.90
2212;DHT22;48849;48.758;9.158;2023-09-30T00:16:05;20.10;99.90
2212;DHT22;48849;48.758;9.158;2023-09-30T00:18:33;20.10;99.90
2212;DHT22;48849;48.758;9.158;2023-09-30T00:20:59;20.10;99.90
2212;DHT22;48849;48.758;9.158;2023-09-30T00:23:26;20.10;99.90
2212;DHT22;48849;48.758;9.158;2023-09-30T00:25:53;20.10;99.90
2212;DHT22;48849;48.758;9.158;2023-09-30T00:28:19;20.00;99.90
2212;DHT22;48849;48.758;9.158;2023-09-30T00:30:46;20.00;99.90
2212;DHT22;48849;48.758;9.158;2023-09-30T00:33:13;20.00;99.90
2212;DHT22;48849;48.758;9.158;2023-09-30T00:35:41;20.00;99.90
2212;DHT22;48849;48.758;9.158;2023-09-30T00:38:08;20.00;99.90
2212;DHT22;48849;48.758;9.158;2023-09-30T00:40:35;20.00;99.90
2212;DHT22;48849;48.758;9.158;2023-09-30T00:43:02;20.00;99.90
2212;DHT22;48849;48.758;9.158;2023-09-30T00:45:30;20.00;99.90
2212;DHT22;48849;48.758;9.158;2023-09-30T00:47:57;20.00;99.90
2212;DHT22;48849;48.758;9.158;2023-09-30T00:50:24;20.00;99.90
2212;DHT22;48849;48.758;9.158;2023-09-30T00:52:53;20.00;99.90
2212;DHT22;48849;48.758;9.158;2023-09-30T00:55:21;20.00;99.90
2212;DHT22;48849;48.758;9.158;2023-09-30T00:57:49;19.90;99.90
2212;DHT22;48849;48.758;9.158;2023-09-30T01:00:16;19.90;99.90
2212;DHT22;48849;48.758;9.158;2023-09-30T01:02:44;20.00;99.90
2212;DHT22;48849;48.758;9.158;2023-09-30T01:05:11;19.90;99.90
2212;DHT22;48849;48.758;9.158;2023-09-30T01:07:38;19.90;99.90
2212;DHT22;48849;48.758;9.158;2023-09-30T01:10:08;19.80;99.90
2212;DHT22;48849;48.758;9.158;2023-09-30T01:12:34;19.90;99.90
2212;DHT22;48849;48.758;9.158;2023-09-30T01:15:01;19.80;99.90
2212;DHT22;48849;48.758;9.158;2023-09-30T01:17:30;19.90;99.90
2212;DHT22;48849;48.758;9.158;2023-09-30T01:19:57;19.90;99.90
2212;DHT22;48849;48.758;9.158;2023-09-30T01:22:26;19.80;99.90
2212;DHT22;48849;48.758;9.158;2023-09-30T01:24:55;19.80;99.90
2212;DHT22;48849;48.758;9.158;2023-09-30T01:27:22;19.80;99.90
2212;DHT22;48849;48.758;9.158;2023-09-30T01:29:49;19.80;99.90
2212;DHT22;48849;48.758;9.158;2023-09-30T01:32:15;19.80;99.90
2212;DHT22;48849;48.758;9.158;2023-09-30T01:34:42;19.80;99.90
2212;DHT22;48849;48.758;9.158;2023-09-30T01:37:09;19.80;99.90
2212;DHT22;48849;48.758;9.158;2023-09-30T01:39:37;19.90;99.90
2212;DHT22;48849;48.758;9.158;2023-09-30T01:42:04;20.00;99.90
2212;DHT22;48849;48.758;9.158;2023-09-30T01:44:31;19.90;99.90
2212;DHT22;48849;48.758;9.158;2023-09-30T01:46:58;19.90;99.90
2212;DHT22;48849;48.758;9.158;2023-09-30T01:49:25;19.80;99.90
2212;DHT22;48849;48.758;9.158;2023-09-30T01:51:51;19.90;99.90
2212;DHT22;48849;48.758;9.158;2023-09-30T01:54:18;19.90;99.90
2212;DHT22;48849;48.758;9.158;2023-09-30T01:56:46;19.90;99.90
2212;DHT22;48849;48.758;9.158;2023-09-30T01:59:13;19.90;99.90
2212;DHT22;48849;48.758;9.158;2023-09-30T02:01:40;19.90;99.90
2212;DHT22;48849;48.758;9.158;2023-09-30T02:04:06;19.90;99.90
2212;DHT22;48849;48.758;9.158;2023-09-30T02:06:33;20.00;99.90
2212;DHT22;48849;48.758;9.158;2023-09-30T02:09:01;20.00;99.90
2212;DHT22;48849;48.758;9.158;2023-09-30T02:11:28;19.90;99.90
2212;DHT22;48849;48.758;9.158;2023-09-30T02:13:57;19.90;99.90
2212;DHT22;48849;48.758;9.158;2023-09-30T02:16:23;19.90;99.90
2212;DHT22;48849;48.758;9.158;2023-09-30T02:18:50;19.90;99.90
2212;DHT22;48849;48.758;9.158;2023-09-30T02:21:17;19.90;99.90
2212;DHT22;48849;48.758;9.158;2023-09-30T02:23:44;19.90;99.90
2212;DHT22;48849;48.758;9.158;2023-09-30T02:26:13;19.90;99.90
2212;DHT22;48849;48.758;9.158;2023-09-30T02:28:40;19.90;99.90
2212;DHT22;48849;48.758;9.158;2023-09-30T02:31:08;19.80;99.90
2212;DHT22;48849;48.758;9.158;2023-09-30T02:33:35;19.80;99.90
2212;DHT22;48849;48.758;9.158;2023-09-30T02:36:03;19.80;99.90
2212;DHT22;48849;48.758;9.158;2023-09-30T02:38:31;19.80;99.90
2212;DHT22;48849;48.758;9.158;2023-09-30T02:40:58;19.80;99.90
2212;DHT22;48849;48.758;9.158;2023-09-30T02:43:24;19.70;99.90
2212;DHT22;48849;48.758;9.158;2023-09-30T02:45:51;19.70;99.90
2212;DHT22;48849;48.758;9.158;2023-09-30T02:48:19;19.70;99.90
2212;DHT22;48849;48.758;9.158;2023-09-30T02:50:46;19.60;99.90
2212;DHT22;48849;48.758;9.158;2023-09-30T02:53:13;19.70;99.90
2212;DHT22;48849;48.758;9.158;2023-09-30T02:55:40;19.60;99.90
2212;DHT22;48849;48.758;9.158;2023-09-30T02:58:07;19.70;99.90
2212;DHT22;48849;48.758;9.158;2023-09-30T03:00:34;19.70;99.90
2212;DHT22;48849;48.758;9.158;2023-09-30T03:03:02;19.60;99.90
2212;DHT22;48849;48.758;9.158;2023-09-30T03:05:30;19.50;99.90
2212;DHT22;48849;48.758;9.158;2023-09-30T03:07:59;19.50;99.90
2212;DHT22;48849;48.758;9.158;2023-09-30T03:10:26;19.50;99.90
2212;DHT22;48849;48.758;9.158;2023-09-30T03:12:53;19.50;99.90
2212;DHT22;48849;48.758;9.158;2023-09-30T03:15:20;19.50;99.90
2212;DHT22;48849;48.758;9.158;2023-09-30T03:17:47;19.50;99.90
2212;DHT22;48849;48.758;9.158;2023-09-30T03:20:14;19.40;99.90
2212;DHT22;48849;48.758;9.158;2023-09-30T03:22:46;19.50;99.90
2212;DHT22;48849;48.758;9.158;2023-09-30T03:25:14;19.50;99.90
2212;DHT22;48849;48.758;9.158;2023-09-30T03:27:43;19.40;99.90
2212;DHT22;48849;48.758;9.158;2023-09-30T03:30:10;19.40;99.90
2212;DHT22;48849;48.758;9.158;2023-09-30T03:32:38;19.40;99.90
2212;DHT22;48849;48.758;9.158;2023-09-30T03:35:06;19.40;99.90
2212;DHT22;48849;48.758;9.158;2023-09-30T03:37:33;19.40;99.90
2212;DHT22;48849;48.758;9.158;2023-09-30T03:40:01;19.40;99.90
2212;DHT22;48849;48.758;9.158;2023-09-30T03:42:38;19.40;99.90
2212;DHT22;48849;48.758;9.158;2023-09-30T03:45:05;19.40;99.90
2212;DHT22;48849;48.758;9.158;2023-09-30T03:47:35;19.40;99.90
2212;DHT22;48849;48.758;9.158;2023-09-30T03:50:01;19.40;99.90
2212;DHT22;48849;48.758;9.158;2023-09-30T03:52:29;19.40;99.90
2212;DHT22;48849;48.758;9.158;2023-09-30T03:54:58;19.40;99.90
2212;DHT22;48849;48.758;9.158;2023-09-30T03:57:26;19.40;99.90
2212;DHT22;48849;48.758;9.158;2023-09-30T03:59:54;19.40;99.90
2212;DHT22;48849;48.758;9.158;2023-09-30T04:02:21;19.50;99.90
2212;DHT22;48849;48.758;9.158;2023-09-30T04:04:47;19.40;99.90
2212;DHT22;48849;48.758;9.158;2023-09-30T04:07:16;19.40;99.90
2212;DHT22;48849;48.758;9.158;2023-09-30T04:09:43;19.40;99.90
2212;DHT22;48849;48.758;9.158;2023-09-30T04:12:10;19.20;99.90
2212;DHT22;48849;48.758;9.158;2023-09-30T04:14:38;19.30;99.90
2212;DHT22;48849;48.758;9.158;2023-09-30T04:17:05;19.30;99.90
2212;DHT22;48849;48.758;9.158;2023-09-30T04:19:31;19.50;99.90
2212;DHT22;48849;48.758;9.158;2023-09-30T04:21:58;19.30;99.90
2212;DHT22;48849;48.758;9.158;2023-09-30T04:24:25;19.30;99.90
2212;DHT22;48849;48.758;9.158;2023-09-30T04:26:54;19.30;99.90
2212;DHT22;48849;48.758;9.158;2023-09-30T04:29:23;19.40;99.90
2212;DHT22;48849;48.758;9.158;2023-09-30T04:31:51;19.30;99.90
2212;DHT22;48849;48.758;9.158;2023-09-30T04:34:18;19.30;99.90
2212;DHT22;48849;48.758;9.158;2023-09-30T04:36:44;19.30;99.90
2212;DHT22;48849;48.758;9.158;2023-09-30T04:39:11;19.30;99.90
2212;DHT22;48849;48.758;9.158;2023-09-30T04:41:40;19.40;99.90
2212;DHT22;48849;48.758;9.158;2023-09-30T04:44:07;19.30;99.90
2212;DHT22;48849;48.758;9.158;2023-09-30T04:46:35;19.30;99.90
2212;DHT22;48849;48.758;9.158;2023-09-30T04:49:07;19.20;99.90
2212;DHT22;48849;48.758;9.158;2023-09-30T04:51:34;19.20;99.90
2212;DHT22;48849;48.758;9.158;2023-09-30T04:54:01;19.30;99.90
2212;DHT22;48849;48.758;9.158;2023-09-30T04:56:29;19.30;99.90
2212;DHT22;48849;48.758;9.158;2023-09-30T04:58:56;19.50;99.90
2212;DHT22;48849;48.758;9.158;2023-09-30T05:01:24;19.30;99.90
2212;DHT22;48849;48.758;9.158;2023-09-30T05:03:51;19.30;99.90
2212;DHT22;48849;48.758;9.158;2023-09-30T05:06:19;19.30;99.90
2212;DHT22;48849;48.758;9.158;2023-09-30T05:08:46;19.30;99.90
2212;DHT22;48849;48.758;9.158;2023-09-30T05:11:14;19.30;99.90
2212;DHT22;48849;48.758;9.158;2023-09-30T05:13:41;19.40;99.90
2212;DHT22;48849;48.758;9.158;2023-09-30T05:16:07;19.30;99.90
2212;DHT22;48849;48.758;9.158;2023-09-30T05:18:34;19.30;99.90
2212;DHT22;48849;48.758;9.158;2023-09-30T05:21:02;19.40;99.90
2212;DHT22;48849;48.758;9.158;2023-09-30T05:23:30;19.40;99.90
2212;DHT22;48849;48.758;9.158;2023-09-30T05:25:58;19.20;99.90
2212;DHT22;48849;48.758;9.158;2023-09-30T05:28:24;19.20;99.90
2212;DHT22;48849;48.758;9.158;2023-09-30T05:30:52;19.20;99.90
2212;DHT22;48849;48.758;9.158;2023-09-30T05:33:19;19.20;99.90
2212;DHT22;48849;48.758;9.158;2023-09-30T05:35:45;19.20;99.90
2212;DHT22;48849;48.758;9.158;2023-09-30T05:38:12;19.30;99.90
2212;DHT22;48849;48.758;9.158;2023-09-30T05:40:41;19.20;99.90
2212;DHT22;48849;48.758;9.158;2023-09-30T05:43:09;19.20;99.90
2212;DHT22;48849;48.758;9.158;2023-09-30T05:45:39;19.20;99.90
2212;DHT22;48849;48.758;9.158;2023-09-30T05:48:14;19.20;99.90
2212;DHT22;48849;48.758;9.158;2023-09-30T05:50:42;19.20;99.90
2212;DHT22;48849;48.758;9.158;2023-09-30T05:53:09;19.20;99.90
2212;DHT22;48849;48.758;9.158;2023-09-30T05:55:37;19.20;99.90
2212;DHT22;48849;48.758;9.158;2023-09-30T05:58:06;19.20;99.90
2212;DHT22;48849;48.758;9.158;2023-09-30T06:00:32;19.20;99.90
2212;DHT22;48849;48.758;9.158;2023-09-30T06:03:01;19.30;99.90
2212;DHT22;48849;48.758;9.158;2023-09-30T06:05:29;19.20;99.90
2212;DHT22;48849;48.758;9.158;2023-09-30T06:07:58;19.20;99.90
2212;DHT22;48849;48.758;9.158;2023-09-30T06:10:25;19.20;99.90
2212;DHT22;48849;48.758;9.158;2023-09-30T06:12:52;19.20;99.90
2212;DHT22;48849;48.758;9.158;2023-09-30T06:15:22;19.20;99.90
2212;DHT22;48849;48.758;9.158;2023-09-30T06:17:51;19.10;99.90
2212;DHT22;48849;48.758;9.158;2023-09-30T06:20:18;19.10;99.90
2212;DHT22;48849;48.758;9.158;2023-09-30T06:22:45;19.20;99.90
2212;DHT22;48849;48.758;9.158;2023-09-30T06:25:15;19.20;99.90
2212;DHT22;48849;48.758;9.158;2023-09-30T06:27:42;19.20;99.90
2212;DHT22;48849;48.758;9.158;2023-09-30T06:30:10;19.20;99.90
2212;DHT22;48849;48.758;9.158;2023-09-30T06:32:38;19.20;99.90
2212;DHT22;48849;48.758;9.158;2023-09-30T06:35:07;19.20;99.90
2212;DHT22;48849;48.758;9.158;2023-09-30T06:37:35;19.20;99.90
2212;DHT22;48849;48.758;9.158;2023-09-30T06:40:03;19.20;99.90
2212;DHT22;48849;48.758;9.158;2023-09-30T06:42:30;19.20;99.90
2212;DHT22;48849;48.758;9.158;2023-09-30T06:44:57;19.20;99.90
2212;DHT22;48849;48.758;9.158;2023-09-30T06:47:24;19.20;99.90
2212;DHT22;48849;48.758;9.158;2023-09-30T06:49:52;19.20;99.90
2212;DHT22;48849;48.758;9.158;2023-09-30T06:52:19;19.30;99.90
2212;DHT22;48849;48.758;9.158;2023-09-30T06:54:47;19.40;99.90
2212;DHT22;48849;48.758;9.158;2023-09-30T06:57:14;19.30;99.90
2212;DHT22;48849;48.758;9.158;2023-09-30T06:59:41;19.30;99.90
2212;DHT22;48849;48.758;9.158;2023-09-30T07:02:08;19.40;99.90
2212;DHT22;48849;48.758;9.158;2023-09-30T07:04:35;19.60;99.90
2212;DHT22;48849;48.758;9.158;2023-09-30T07:07:10;19.40;99.90
2212;DHT22;48849;48.758;9.158;2023-09-30T07:09:37;19.50;99.90
2212;DHT22;48849;48.758;9.158;2023-09-30T07:12:08;19.40;99.90
2212;DHT22;48849;48.758;9.158;2023-09-30T07:14:35;19.40;99.90
2212;DHT22;48849;48.758;9.158;2023-09-30T07:17:01;19.50;99.90
2212;DHT22;48849;48.758;9.158;2023-09-30T07:19:30;19.50;99.90
2212;DHT22;48849;48.758;9.158;2023-09-30T07:21:57;19.50;99.90
2212;DHT22;48849;48.758;9.158;2023-09-30T07:24:25;19.80;99.90
2212;DHT22;48849;48.758;9.158;2023-09-30T07:26:52;19.50;99.90
2212;DHT22;48849;48.758;9.158;2023-09-30T07:29:20;19.50;99.90
2212;DHT22;48849;48.758;9.158;2023-09-30T07:31:47;19.50;99.90
2212;DHT22;48849;48.758;9.158;2023-09-30T07:34:18;19.40;99.90
2212;DHT22;48849;48.758;9.158;2023-09-30T07:36:46;19.60;99.90
2212;DHT22;48849;48.758;9.158;2023-09-30T07:39:15;19.40;99.90
2212;DHT22;48849;48.758;9.158;2023-09-30T07:41:46;19.50;99.90
2212;DHT22;48849;48.758;9.158;2023-09-30T07:44:13;19.50;99.90
2212;DHT22;48849;48.758;9.158;2023-09-30T07:46:40;19.50;99.90
2212;DHT22;48849;48.758;9.158;2023-09-30T07:49:10;19.40;99.90
2212;DHT22;48849;48.758;9.158;2023-09-30T07:51:38;19.10;99.90
2212;DHT22;48849;48.758;9.158;2023-09-30T07:54:05;19.30;99.90
2212;DHT22;48849;48.758;9.158;2023-09-30T07:56:32;19.50;99.90
2212;DHT22;48849;48.758;9.158;2023-09-30T07:59:04;19.80;99.90
2212;DHT22;48849;48.758;9.158;2023-09-30T08:04:46;19.50;99.90
2212;DHT22;48849;48.758;9.158;2023-09-30T08:07:13;19.60;99.90
2212;DHT22;48849;48.758;9.158;2023-09-30T08:09:40;19.50;99.90
2212;DHT22;48849;48.758;9.158;2023-09-30T08:12:34;19.60;99.90
2212;DHT22;48849;48.758;9.158;2023-09-30T09:34:14;19.90;99.90
2212;DHT22;48849;48.758;9.158;2023-09-30T09:36:50;20.00;99.90
2212;DHT22;48849;48.758;9.158;2023-09-30T09:42:57;19.90;99.90
2212;DHT22;48849;48.758;9.158;2023-09-30T09:45:49;20.00;99.90
2212;DHT22;48849;48.758;9.158;2023-09-30T09:48:50;20.00;99.90
2212;DHT22;48849;48.758;9.158;2023-09-30T09:55:04;20.00;99.90
2212;DHT22;48849;48.758;9.158;2023-09-30T09:58:29;20.00;99.90
2212;DHT22;48849;48.758;9.158;2023-09-30T10:01:18;20.10;99.90
2212;DHT22;48849;48.758;9.158;2023-09-30T10:04:02;20.10;99.90
2212;DHT22;48849;48.758;9.158;2023-09-30T10:06:43;20.10;99.90
2212;DHT22;48849;48.758;9.158;2023-09-30T10:09:28;20.20;99.90
2212;DHT22;48849;48.758;9.158;2023-09-30T10:12:17;20.20;99.90
2212;DHT22;48849;48.758;9.158;2023-09-30T10:14:58;20.30;99.90
2212;DHT22;48849;48.758;9.158;2023-09-30T10:24:36;20.40;99.90
2212;DHT22;48849;48.758;9.158;2023-09-30T10:27:36;20.40;99.90
2212;DHT22;48849;48.758;9.158;2023-09-30T10:30:10;20.40;99.90
2212;DHT22;48849;48.758;9.158;2023-09-30T10:33:10;20.40;99.90
2212;DHT22;48849;48.758;9.158;2023-09-30T10:35:45;20.50;99.90
2212;DHT22;48849;48.758;9.158;2023-09-30T10:38:40;20.50;99.90
2212;DHT22;48849;48.758;9.158;2023-09-30T10:41:08;20.50;99.90
2212;DHT22;48849;48.758;9.158;2023-09-30T11:00:28;20.70;99.90
2212;DHT22;48849;48.758;9.158;2023-09-30T11:13:57;20.70;99.90
2212;DHT22;48849;48.758;9.158;2023-09-30T11:26:29;20.70;99.90
2212;DHT22;48849;48.758;9.158;2023-09-30T11:29:16;21.10;99.90
2212;DHT22;48849;48.758;9.158;2023-09-30T11:42:36;21.10;99.90
2212;DHT22;48849;48.758;9.158;2023-09-30T11:45:20;21.20;99.90
2212;DHT22;48849;48.758;9.158;2023-09-30T11:48:24;21.20;99.90
2212;DHT22;48849;48.758;9.158;2023-09-30T11:51:07;21.30;99.90
2212;DHT22;48849;48.758;9.158;2023-09-30T11:53:41;21.40;99.90
2212;DHT22;48849;48.758;9.158;2023-09-30T11:56:28;21.70;99.90
2212;DHT22;48849;48.758;9.158;2023-09-30T11:59:13;22.10;99.90
2212;DHT22;48849;48.758;9.158;2023-09-30T12:01:54;22.30;99.90
2212;DHT22;48849;48.758;9.158;2023-09-30T12:04:34;22.60;99.90
2212;DHT22;48849;48.758;9.158;2023-09-30T12:07:18;22.70;99.90
2212;DHT22;48849;48.758;9.158;2023-09-30T12:09:58;22.70;99.90
2212;DHT22;48849;48.758;9.158;2023-09-30T12:12:45;22.90;99.90
2212;DHT22;48849;48.758;9.158;2023-09-30T12:15:18;22.80;99.90
2212;DHT22;48849;48.758;9.158;2023-09-30T12:17:47;22.70;99.90
2212;DHT22;48849;48.758;9.158;2023-09-30T12:20:17;22.80;99.90
2212;DHT22;48849;48.758;9.158;2023-09-30T12:22:51;22.80;99.90
2212;DHT22;48849;48.758;9.158;2023-09-30T12:25:29;22.60;99.90
2212;DHT22;48849;48.758;9.158;2023-09-30T12:28:02;22.50;99.90
2212;DHT22;48849;48.758;9.158;2023-09-30T12:30:51;22.40;99.90
2212;DHT22;48849;48.758;9.158;2023-09-30T12:33:21;22.00;99.90
2212;DHT22;48849;48.758;9.158;2023-09-30T12:35:57;22.10;99.90
2212;DHT22;48849;48.758;9.158;2023-09-30T12:42:00;22.00;99.90
2212;DHT22;48849;48.758;9.158;2023-09-30T12:44:44;21.80;99.90
2212;DHT22;48849;48.758;9.158;2023-09-30T12:47:41;21.90;99.90
2212;DHT22;48849;48.758;9.158;2023-09-30T12:50:22;21.80;99.90
2212;DHT22;48849;48.758;9.158;2023-09-30T12:52:56;21.90;99.90
2212;DHT22;48849;48.758;9.158;2023-09-30T12:55:31;22.00;99.90
2212;DHT22;48849;48.758;9.158;2023-09-30T12:58:00;21.80;99.90
2212;DHT22;48849;48.758;9.158;2023-09-30T13:00:34;21.90;99.90
2212;DHT22;48849;48.758;9.158;2023-09-30T13:03:08;21.90;99.90
2212;DHT22;48849;48.758;9.158;2023-09-30T13:05:38;21.80;99.90
2212;DHT22;48849;48.758;9.158;2023-09-30T13:08:08;21.80;99.90
2212;DHT22;48849;48.758;9.158;2023-09-30T13:10:49;21.80;99.90
2212;DHT22;48849;48.758;9.158;2023-09-30T13:13:38;21.50;99.90
2212;DHT22;48849;48.758;9.158;2023-09-30T13:16:11;21.70;99.90
2212;DHT22;48849;48.758;9.158;2023-09-30T13:18:44;21.70;99.90
2212;DHT22;48849;48.758;9.158;2023-09-30T13:21:14;21.70;99.90
2212;DHT22;48849;48.758;9.158;2023-09-30T13:23:54;21.60;99.90
2212;DHT22;48849;48.758;9.158;2023-09-30T13:26:24;21.60;99.90
2212;DHT22;48849;48.758;9.158;2023-09-30T13:28:57;21.80;99.90
2212;DHT22;48849;48.758;9.158;2023-09-30T13:31:32;21.60;99.90
2212;DHT22;48849;48.758;9.158;2023-09-30T13:34:10;21.50;99.90
2212;DHT22;48849;48.758;9.158;2023-09-30T13:37:06;21.50;99.90
2212;DHT22;48849;48.758;9.158;2023-09-30T13:39:42;21.40;99.90
2212;DHT22;48849;48.758;9.158;2023-09-30T13:42:22;21.40;99.90
2212;DHT22;48849;48.758;9.158;2023-09-30T13:44:52;21.40;99.90
2212;DHT22;48849;48.758;9.158;2023-09-30T13:47:23;21.70;99.90
2212;DHT22;48849;48.758;9.158;2023-09-30T13:50:13;21.50;99.90
2212;DHT22;48849;48.758;9.158;2023-09-30T13:52:54;21.60;99.90
2212;DHT22;48849;48.758;9.158;2023-09-30T13:58:51;21.40;99.90
2212;DHT22;48849;48.758;9.158;2023-09-30T14:01:19;21.40;99.90
2212;DHT22;48849;48.758;9.158;2023-09-30T14:03:57;21.40;99.90
2212;DHT22;48849;48.758;9.158;2023-09-30T14:06:34;21.40;99.90
2212;DHT22;48849;48.758;9.158;2023-09-30T14:09:04;21.40;99.90
2212;DHT22;48849;48.758;9.158;2023-09-30T14:11:32;21.40;99.90
2212;DHT22;48849;48.758;9.158;2023-09-30T14:14:11;21.40;99.90
2212;DHT22;48849;48.758;9.158;2023-09-30T14:16:41;21.60;99.90
2212;DHT22;48849;48.758;9.158;2023-09-30T14:19:26;21.70;99.90
2212;DHT22;48849;48.758;9.158;2023-09-30T14:22:20;21.30;99.90
2212;DHT22;48849;48.758;9.158;2023-09-30T14:29:19;21.40;99.90
2212;DHT22;48849;48.758;9.158;2023-09-30T14:32:23;21.30;99.90
2212;DHT22;48849;48.758;9.158;2023-09-30T14:35:04;21.50;99.90
2212;DHT22;48849;48.758;9.158;2023-09-30T15:09:18;21.20;99.90
2212;DHT22;48849;48.758;9.158;2023-09-30T15:15:40;21.20;99.90
2212;DHT22;48849;48.758;9.158;2023-09-30T15:18:56;21.20;99.90
2212;DHT22;48849;48.758;9.158;2023-09-30T16:13:34;21.00;99.90
2212;DHT22;48849;48.758;9.158;2023-09-30T17:23:43;20.60;99.90
2212;DHT22;48849;48.758;9.158;2023-09-30T17:26:10;20.60;99.90
2212;DHT22;48849;48.758;9.158;2023-09-30T17:28:37;20.50;99.90
2212;DHT22;48849;48.758;9.158;2023-09-30T17:31:05;20.60;99.90
2212;DHT22;48849;48.758;9.158;2023-09-30T17:33:48;20.60;99.90
2212;DHT22;48849;48.758;9.158;2023-09-30T17:36:16;20.50;99.90
2212;DHT22;48849;48.758;9.158;2023-09-30T17:38:47;20.50;99.90
2212;DHT22;48849;48.758;9.158;2023-09-30T17:41:14;20.50;99.90
2212;DHT22;48849;48.758;9.158;2023-09-30T17:43:40;20.20;99.90
2212;DHT22;48849;48.758;9.158;2023-09-30T17:46:11;20.40;99.90
2212;DHT22;48849;48.758;9.158;2023-09-30T17:48:38;20.30;99.90
2212;DHT22;48849;48.758;9.158;2023-09-30T17:51:05;20.40;99.90
2212;DHT22;48849;48.758;9.158;2023-09-30T17:53:32;20.40;99.90
2212;DHT22;48849;48.758;9.158;2023-09-30T17:56:03;20.40;99.90
2212;DHT22;48849;48.758;9.158;2023-09-30T17:58:43;20.40;99.90
2212;DHT22;48849;48.758;9.158;2023-09-30T18:01:13;20.40;99.90
2212;DHT22;48849;48.758;9.158;2023-09-30T18:04:02;20.40;99.90
2212;DHT22;48849;48.758;9.158;2023-09-30T18:06:31;20.20;99.90
2212;DHT22;48849;48.758;9.158;2023-09-30T18:08:58;20.20;99.90
2212;DHT22;48849;48.758;9.158;2023-09-30T18:11:30;20.30;99.90
2212;DHT22;48849;48.758;9.158;2023-09-30T18:13:56;20.10;99.90
2212;DHT22;48849;48.758;9.158;2023-09-30T18:16:23;20.20;99.90
2212;DHT22;48849;48.758;9.158;2023-09-30T18:18:50;20.40;99.90
2212;DHT22;48849;48.758;9.158;2023-09-30T18:21:17;20.20;99.90
2212;DHT22;48849;48.758;9.158;2023-09-30T18:23:46;20.10;99.90
2212;DHT22;48849;48.758;9.158;2023-09-30T18:44:49;19.90;99.90
2212;DHT22;48849;48.758;9.158;2023-09-30T18:47:17;20.00;99.90
2212;DHT22;48849;48.758;9.158;2023-09-30T18:53:00;19.80;99.90
2212;DHT22;48849;48.758;9.158;2023-09-30T18:59:02;19.70;99.90
2212;DHT22;48849;48.758;9.158;2023-09-30T19:08:24;19.60;99.90
2212;DHT22;48849;48.758;9.158;2023-09-30T19:11:10;19.60;99.90
2212;DHT22;48849;48.758;9.158;2023-09-30T19:13:51;19.80;99.90
2212;DHT22;48849;48.758;9.158;2023-09-30T19:21:53;19.40;99.90
2212;DHT22;48849;48.758;9.158;2023-09-30T19:24:21;19.60;99.90
2212;DHT22;48849;48.758;9.158;2023-09-30T19:27:02;19.40;99.90
2212;DHT22;48849;48.758;9.158;2023-09-30T19:33:32;19.40;99.90
2212;DHT22;48849;48.758;9.158;2023-09-30T21:56:56;18.30;99.90
2212;DHT22;48849;48.758;9.158;2023-09-30T21:59:23;18.20;99.90
2212;DHT22;48849;48.758;9.158;2023-09-30T22:01:52;18.20;99.90
2212;DHT22;48849;48.758;9.158;2023-09-30T22:04:19;18.00;99.90
2212;DHT22;48849;48.758;9.158;2023-09-30T22:06:46;18.30;99.90
2212;DHT22;48849;48.758;9.158;2023-09-30T22:09:13;18.50;99.90
2212;DHT22;48849;48.758;9.158;2023-09-30T22:11:55;18.20;99.90
2212;DHT22;48849;48.758;9.158;2023-09-30T22:14:22;18.20;99.90
2212;DHT22;48849;48.758;9.158;2023-09-30T22:16:49;18.10;99.90
2212;DHT22;48849;48.758;9.158;2023-09-30T22:19:29;18.20;99.90
2212;DHT22;48849;48.758;9.158;2023-09-30T22:21:57;18.30;99.90
2212;DHT22;48849;48.758;9.158;2023-09-30T22:24:38;18.40;99.90
2212;DHT22;48849;48.758;9.158;2023-09-30T22:27:06;18.20;99.90
2212;DHT22;48849;48.758;9.158;2023-09-30T22:29:33;18.40;99.90
2212;DHT22;48849;48.758;9.158;2023-09-30T22:32:00;18.10;99.90
2212;DHT22;48849;48.758;9.158;2023-09-30T22:34:28;18.10;99.90
2212;DHT22;48849;48.758;9.158;2023-09-30T22:36:55;18.10;99.90
2212;DHT22;48849;48.758;9.158;2023-09-30T22:39:22;18.10;99.90
2212;DHT22;48849;48.758;9.158;2023-09-30T22:41:49;18.10;99.90
2212;DHT22;48849;48.758;9.158;2023-09-30T22:44:17;18.00;99.90
2212;DHT22;48849;48.758;9.158;2023-09-30T22:46:44;18.10;99.90
2212;DHT22;48849;48.758;9.158;2023-09-30T22:49:11;17.90;99.90
2212;DHT22;48849;48.758;9.158;2023-09-30T22:51:38;18.10;99.90
2212;DHT22;48849;48.758;9.158;2023-09-30T22:54:05;18.00;99.90
2212;DHT22;48849;48.758;9.158;2023-09-30T22:56:34;17.90;99.90
2212;DHT22;48849;48.758;9.158;2023-09-30T22:59:02;18.00;99.90
2212;DHT22;48849;48.758;9.158;2023-09-30T23:01:30;18.20;99.90
2212;DHT22;48849;48.758;9.158;2023-09-30T23:03:59;18.10;99.90
2212;DHT22;48849;48.758;9.158;2023-09-30T23:06:28;17.90;99.90
2212;DHT22;48849;48.758;9.158;2023-09-30T23:08:56;17.90;99.90
2212;DHT22;48849;48.758;9.158;2023-09-30T23:11:23;18.10;99.90
2212;DHT22;48849;48.758;9.158;2023-09-30T23:13:50;17.70;99.90
2212;DHT22;48849;48.758;9.158;2023-09-30T23:16:17;17.90;99.90
2212;DHT22;48849;48.758;9.158;2023-09-30T23:18:46;17.80;99.90
2212;DHT22;48849;48.758;9.158;2023-09-30T23:21:13;17.80;99.90
2212;DHT22;48849;48.758;9.158;2023-09-30T23:23:44;17.80;99.90
2212;DHT22;48849;48.758;9.158;2023-09-30T23:26:11;18.00;99.90
2212;DHT22;48849;48.758;9.158;2023-09-30T23:28:38;17.80;99.90
2212;DHT22;48849;48.758;9.158;2023-09-30T23:31:04;17.90;99.90
2212;DHT22;48849;48.758;9.158;2023-09-30T23:33:33;17.90;99.90
2212;DHT22;48849;48.758;9.158;2023-09-30T23:36:01;17.90;99.90
2212;DHT22;48849;48.758;9.158;2023-09-30T23:38:31;17.90;99.90
2212;DHT22;48849;48.758;9.158;2023-09-30T23:40:58;17.80;99.90
2212;DHT22;48849;48.758;9.158;2023-09-30T23:43:28;17.80;99.90
2212;DHT22;48849;48.758;9.158;2023-09-30T23:45:57;17.80;99.90
2212;DHT22;48849;48.758;9.158;2023-09-30T23:48:23;17.80;99.90
2212;DHT22;48849;48.758;9.158;2023-09-30T23:50:51;17.80;99.90
2212;DHT22;48849;48.758;9.158;2023-09-30T23:53:20;17.80;99.90
2212;DHT22;48849;48.758;9.158;2023-09-30T23:55:48;17.80;99.90
2212;DHT22;48849;48.758;9.158;2023-09-30T23:58:14;17.70;99.90
